Time;durP1;ratioP1;P1;durP2;ratioP2;P2;SDS_P1;SDS_P2;PMS_P1;PMS_P2;Temp;Humidity;BMP_temperature;BMP_pressure;BME280_temperature;BME280_humidity;BME280_pressure;Samples;Min_cycle;Max_cycle;Signal;HPM_P1;HPM_P2
2023/06/01 00:00:56;;;;;;;17.10;5.35;;;11.60;99.90;;;;;;5030968;28;20045;-92
2023/06/01 00:03:26;;;;;;;13.50;4.55;;;11.30;99.90;;;;;;5022079;28;20052;-92
2023/06/01 00:06:11;;;;;;;16.55;5.47;;;11.30;99.90;;;;;;5032117;28;20045;-93
2023/06/01 00:09:03;;;;;;;22.77;5.90;;;11.30;99.90;;;;;;5031567;28;20094;-93
2023/06/01 00:11:32;;;;;;;17.77;5.53;;;11.10;99.90;;;;;;5031739;28;20044;-93
2023/06/01 00:14:12;;;;;;;18.25;4.82;;;11.30;99.90;;;;;;5030422;28;20088;-93
2023/06/01 00:16:55;;;;;;;13.32;5.15;;;11.30;99.90;;;;;;5030218;28;20041;-93
2023/06/01 00:19:38;;;;;;;18.88;5.57;;;11.30;99.90;;;;;;5026677;28;20061;-92
2023/06/01 00:23:21;;;;;;;16.15;4.90;;;11.20;99.90;;;;;;5022987;28;20124;-92
2023/06/01 00:25:29;;;;;;;16.17;5.05;;;11.10;99.90;;;;;;5037769;28;20064;-92
2023/06/01 00:28:02;;;;;;;17.90;5.40;;;11.30;99.90;;;;;;5031867;28;20041;-92
2023/06/01 00:30:45;;;;;;;18.17;5.50;;;11.30;99.90;;;;;;5032884;28;20076;-93
2023/06/01 00:33:29;;;;;;;16.27;4.82;;;11.30;99.90;;;;;;5033337;28;20045;-92
2023/06/01 00:36:10;;;;;;;15.38;5.55;;;11.00;99.90;;;;;;5032885;28;20048;-93
2023/06/01 00:38:39;;;;;;;13.55;4.57;;;11.30;99.90;;;;;;5031537;28;20114;-93
2023/06/01 00:41:10;;;;;;;21.33;5.78;;;11.20;99.90;;;;;;5030722;28;20040;-93
2023/06/01 00:43:45;;;;;;;20.80;5.03;;;11.30;99.90;;;;;;5031084;28;20044;-93
2023/06/01 00:46:32;;;;;;;16.55;4.70;;;11.20;99.90;;;;;;5032537;28;20519;-92
2023/06/01 00:49:19;;;;;;;18.00;4.65;;;11.00;99.90;;;;;;5031713;28;20052;-92
2023/06/01 00:52:00;;;;;;;15.98;4.95;;;11.10;99.90;;;;;;5032429;28;20443;-92
2023/06/01 00:54:43;;;;;;;18.35;4.95;;;11.20;99.90;;;;;;5028573;28;20060;-92
2023/06/01 00:57:28;;;;;;;11.27;5.10;;;11.20;99.90;;;;;;5028970;28;20064;-92
2023/06/01 01:03:00;;;;;;;16.75;5.60;;;11.20;99.90;;;;;;4998456;28;20060;-93
2023/06/01 01:05:44;;;;;;;17.90;5.45;;;11.20;99.90;;;;;;5033292;28;20049;-91
2023/06/01 01:08:17;;;;;;;17.63;4.95;;;11.20;99.90;;;;;;5032238;28;20060;-92
2023/06/01 01:11:00;;;;;;;23.30;5.70;;;11.20;99.90;;;;;;5030643;28;20128;-92
2023/06/01 01:13:52;;;;;;;19.90;5.88;;;11.20;99.90;;;;;;5046222;28;20056;-92
2023/06/01 01:16:36;;;;;;;15.60;5.28;;;11.20;99.90;;;;;;5031558;28;20063;-92
2023/06/01 01:19:32;;;;;;;11.95;5.32;;;11.30;99.90;;;;;;5030928;28;20060;-92
2023/06/01 01:22:20;;;;;;;19.60;4.93;;;11.20;99.90;;;;;;5033898;28;20052;-92
2023/06/01 01:25:33;;;;;;;18.58;6.07;;;11.20;99.90;;;;;;5045941;28;20048;-92
2023/06/01 01:28:41;;;;;;;16.98;5.38;;;11.20;99.90;;;;;;5047670;28;20060;-91
2023/06/01 01:31:29;;;;;;;14.23;5.22;;;11.20;99.90;;;;;;5028092;28;20049;-92
2023/06/01 01:34:05;;;;;;;16.80;6.10;;;11.20;99.90;;;;;;5054179;28;20049;-93
2023/06/01 01:36:40;;;;;;;18.23;5.40;;;11.20;99.90;;;;;;5037804;28;20045;-92
2023/06/01 01:39:08;;;;;;;16.73;5.40;;;11.20;99.90;;;;;;5030425;28;20037;-92
2023/06/01 01:41:45;;;;;;;18.48;5.28;;;11.10;99.90;;;;;;5030717;28;20044;-92
2023/06/01 01:44:29;;;;;;;18.17;4.82;;;11.10;99.90;;;;;;5026510;28;20665;-92
2023/06/01 01:47:23;;;;;;;17.63;5.20;;;11.10;99.90;;;;;;5026684;28;20045;-93
2023/06/01 01:50:06;;;;;;;14.13;5.32;;;11.20;99.90;;;;;;5047828;28;20048;-93
2023/06/01 01:52:44;;;;;;;18.23;5.18;;;11.10;99.90;;;;;;5030248;28;20049;-92
2023/06/01 01:55:18;;;;;;;20.63;6.22;;;11.10;99.90;;;;;;5030921;28;20562;-93
2023/06/01 01:57:48;;;;;;;19.02;5.22;;;11.10;99.90;;;;;;5031304;28;20110;-93
2023/06/01 02:00:17;;;;;;;14.00;5.28;;;11.10;99.90;;;;;;5030148;28;20045;-92
2023/06/01 02:02:55;;;;;;;18.30;5.40;;;11.10;99.90;;;;;;5030608;28;20049;-93
2023/06/01 02:05:24;;;;;;;17.33;5.05;;;11.10;99.90;;;;;;5025323;28;20045;-92
2023/06/01 02:08:11;;;;;;;15.87;5.70;;;11.10;99.90;;;;;;5032311;28;20053;-92
2023/06/01 02:14:12;;;;;;;15.32;5.68;;;11.10;99.90;;;;;;5006122;28;20050;-92
2023/06/01 02:16:47;;;;;;;15.98;4.65;;;11.10;99.90;;;;;;5028325;28;20043;-92
2023/06/01 02:19:18;;;;;;;14.50;4.78;;;10.80;99.90;;;;;;5027007;28;20131;-92
2023/06/01 02:21:55;;;;;;;13.63;3.90;;;10.90;99.90;;;;;;5037263;28;20048;-92
2023/06/01 02:24:31;;;;;;;10.95;3.70;;;11.10;99.90;;;;;;5033415;28;20041;-90
2023/06/01 02:27:38;;;;;;;12.50;3.45;;;12.00;99.90;;;;;;5035664;28;20053;-93
2023/06/01 02:30:20;;;;;;;8.48;3.30;;;10.80;99.90;;;;;;5005103;28;20102;-93
2023/06/01 02:33:37;;;;;;;12.40;3.50;;;11.00;99.90;;;;;;5033812;28;20072;-91
2023/06/01 02:36:18;;;;;;;14.63;3.90;;;10.90;99.90;;;;;;5017414;28;20318;-92
2023/06/01 02:38:50;;;;;;;13.43;4.18;;;11.70;99.90;;;;;;5017728;28;20049;-93
2023/06/01 02:41:24;;;;;;;15.77;3.75;;;11.20;99.90;;;;;;5017276;28;20041;-92
2023/06/01 02:43:56;;;;;;;14.80;4.32;;;11.30;99.90;;;;;;5019023;28;20044;-91
2023/06/01 02:46:36;;;;;;;12.35;3.80;;;11.10;99.90;;;;;;5019733;28;20497;-91
2023/06/01 02:49:13;;;;;;;12.60;3.70;;;11.10;99.90;;;;;;5028493;28;20118;-93
2023/06/01 02:51:51;;;;;;;10.30;3.05;;;11.10;99.90;;;;;;5032145;28;20081;-92
2023/06/01 02:54:32;;;;;;;11.70;3.40;;;11.20;99.90;;;;;;5027476;28;20045;-92
2023/06/01 02:57:07;;;;;;;14.15;3.47;;;11.00;99.90;;;;;;5028423;28;20053;-92
2023/06/01 02:59:46;;;;;;;14.13;3.55;;;11.10;99.90;;;;;;5045670;28;20049;-92
2023/06/01 03:02:15;;;;;;;12.68;3.78;;;11.10;99.90;;;;;;5023208;28;20111;-92
2023/06/01 03:04:52;;;;;;;17.05;4.32;;;11.10;99.90;;;;;;5018709;28;20052;-92
2023/06/01 03:07:25;;;;;;;16.52;3.92;;;11.20;99.90;;;;;;5017219;28;20144;-92
2023/06/01 03:10:08;;;;;;;14.30;4.15;;;11.10;99.90;;;;;;5016507;28;20099;-93
2023/06/01 03:12:39;;;;;;;10.63;3.50;;;11.10;99.90;;;;;;5016729;28;20045;-92
2023/06/01 03:15:21;;;;;;;16.45;4.40;;;11.10;99.90;;;;;;5017056;28;20460;-92
2023/06/01 03:17:55;;;;;;;16.48;4.57;;;11.20;99.90;;;;;;5003332;28;20371;-92
2023/06/01 03:20:30;;;;;;;13.98;4.40;;;11.10;99.90;;;;;;5015731;28;20493;-93
2023/06/01 03:23:10;;;;;;;15.35;4.15;;;11.10;99.90;;;;;;5014280;28;20051;-91
2023/06/01 03:25:45;;;;;;;15.18;4.55;;;11.20;99.90;;;;;;5008826;28;20132;-92
2023/06/01 03:28:19;;;;;;;14.48;4.63;;;11.10;99.90;;;;;;5016306;28;20426;-93
2023/06/01 03:30:53;;;;;;;22.13;5.32;;;11.40;99.90;;;;;;5016441;28;20556;-92
2023/06/01 03:33:33;;;;;;;18.23;5.07;;;11.10;99.90;;;;;;5015724;28;20052;-93
2023/06/01 03:36:27;;;;;;;13.52;3.88;;;11.30;99.90;;;;;;5021263;28;20045;-92
2023/06/01 03:39:07;;;;;;;19.10;5.63;;;11.10;99.90;;;;;;5033157;28;20062;-92
2023/06/01 03:41:52;;;;;;;14.50;4.80;;;11.20;99.90;;;;;;5027404;28;20371;-92
2023/06/01 03:44:28;;;;;;;15.10;5.43;;;11.10;99.90;;;;;;5031678;28;20493;-93
2023/06/01 03:47:25;;;;;;;16.23;4.57;;;11.10;99.90;;;;;;5043675;28;20048;-91
2023/06/01 03:49:58;;;;;;;17.10;4.93;;;10.70;99.90;;;;;;5022748;28;20145;-92
2023/06/01 03:52:39;;;;;;;19.48;5.15;;;11.10;99.90;;;;;;5028730;28;20107;-92
2023/06/01 03:55:13;;;;;;;16.80;6.10;;;11.10;99.90;;;;;;5012946;28;20124;-93
2023/06/01 03:57:47;;;;;;;10.75;4.32;;;11.10;99.90;;;;;;5016932;28;20500;-93
2023/06/01 04:00:18;;;;;;;11.13;3.85;;;11.10;99.90;;;;;;5015867;28;20045;-92
2023/06/01 04:02:56;;;;;;;13.43;4.40;;;11.20;99.90;;;;;;5016235;28;20045;-92
2023/06/01 04:05:28;;;;;;;14.50;3.92;;;11.10;99.90;;;;;;5045712;28;20052;-92
2023/06/01 04:08:08;;;;;;;15.85;4.72;;;11.00;99.90;;;;;;5047992;28;20084;-93
2023/06/01 04:10:49;;;;;;;15.35;4.38;;;11.00;99.90;;;;;;5030415;28;20151;-93
2023/06/01 04:13:43;;;;;;;14.23;4.05;;;11.10;99.90;;;;;;5017908;28;20105;-92
2023/06/01 04:16:46;;;;;;;;;;;;;;;;;;;;;
2023/06/01 04:19:26;;;;;;;14.45;4.10;;;11.10;99.90;;;;;;5036438;28;20059;-93
2023/06/01 04:21:58;;;;;;;17.85;4.43;;;11.00;99.90;;;;;;5027911;28;20049;-93
2023/06/01 04:24:27;;;;;;;18.10;4.82;;;11.00;99.90;;;;;;5008468;28;20178;-94
2023/06/01 04:27:16;;;;;;;15.27;4.18;;;11.00;99.90;;;;;;5027741;28;20154;-93
2023/06/01 04:30:00;;;;;;;15.40;4.35;;;10.90;99.90;;;;;;5046771;28;20083;-94
2023/06/01 04:33:09;;;;;;;9.93;3.72;;;11.00;99.90;;;;;;5024943;28;20052;-94
2023/06/01 04:36:10;;;;;;;;;;;;;;;;;;;;;
2023/06/01 04:38:46;;;;;;;15.98;3.50;;;11.00;99.90;;;;;;5067793;28;20571;-93
2023/06/01 04:41:30;;;;;;;11.82;4.05;;;11.00;99.90;;;;;;5044241;28;20409;-93
2023/06/01 04:44:18;;;;;;;11.43;3.72;;;10.50;99.90;;;;;;5035140;28;20048;-93
2023/06/01 04:47:03;;;;;;;13.57;4.10;;;11.10;99.90;;;;;;5035149;28;20076;-94
2023/06/01 04:50:29;;;;;;;11.80;4.15;;;11.00;99.90;;;;;;5034514;28;20059;-93
2023/06/01 04:53:01;;;;;;;13.75;4.05;;;10.90;99.90;;;;;;4992695;28;20073;-94
2023/06/01 04:55:32;;;;;;;16.50;4.25;;;11.00;99.90;;;;;;4978377;28;20053;-93
2023/06/01 04:58:34;;;;;;;15.23;3.97;;;10.90;99.90;;;;;;5050603;28;20056;-94
2023/06/01 05:01:24;;;;;;;11.32;4.13;;;11.20;99.90;;;;;;5034664;28;20524;-94
2023/06/01 05:04:01;;;;;;;13.52;3.92;;;11.00;99.90;;;;;;5035113;28;20060;-94
2023/06/01 05:06:35;;;;;;;12.40;4.10;;;11.10;99.90;;;;;;5035093;28;20562;-94
2023/06/01 05:09:33;;;;;;;;;;;;;;;;;;;;;
2023/06/01 05:12:10;;;;;;;12.48;4.38;;;11.00;99.90;;;;;;5068484;28;20040;-94
2023/06/01 05:14:48;;;;;;;;;;;;;;;;;;;;;
2023/06/01 05:18:08;;;;;;;14.95;4.88;;;11.10;99.90;;;;;;5052587;28;20304;-94
2023/06/01 05:20:37;;;;;;;12.55;4.47;;;11.10;99.90;;;;;;5044174;28;20044;-93
2023/06/01 05:24:06;;;;;;;13.63;3.75;;;11.50;99.90;;;;;;5034230;28;20079;-94
2023/06/01 05:26:37;;;;;;;14.15;3.88;;;10.90;99.90;;;;;;5039978;28;20098;-94
2023/06/01 05:29:32;;;;;;;11.90;3.33;;;11.00;99.90;;;;;;5034609;28;20060;-93
2023/06/01 05:32:27;;;;;;;8.95;3.30;;;11.40;99.90;;;;;;5024567;28;20448;-93
2023/06/01 05:35:09;;;;;;;10.18;2.83;;;11.20;99.90;;;;;;5019683;28;20049;-93
2023/06/01 05:37:59;;;;;;;8.23;2.55;;;11.20;99.90;;;;;;5046997;28;20122;-94
2023/06/01 05:40:39;;;;;;;10.48;2.90;;;11.10;99.90;;;;;;5031261;28;20053;-94
2023/06/01 05:43:58;;;;;;;14.40;3.53;;;11.20;99.90;;;;;;5052066;28;20049;-94
2023/06/01 05:46:45;;;;;;;9.85;3.30;;;11.30;99.90;;;;;;5034354;28;20095;-94
2023/06/01 05:49:55;;;;;;;15.65;3.40;;;11.20;99.90;;;;;;5029907;28;20068;-95
2023/06/01 05:52:59;;;;;;;;;;;;;;;;;;;;;
2023/06/01 05:55:45;;;;;;;8.18;3.15;;;11.40;99.90;;;;;;5050145;28;20053;-94
2023/06/01 05:58:52;;;;;;;10.00;2.92;;;11.40;99.90;;;;;;5033232;28;20071;-96
2023/06/01 06:01:57;;;;;;;6.38;2.50;;;11.20;99.90;;;;;;4989297;28;20056;-94
2023/06/01 06:04:40;;;;;;;5.85;2.55;;;11.40;99.90;;;;;;5051247;28;20064;-94
2023/06/01 06:07:09;;;;;;;9.32;2.55;;;11.40;99.90;;;;;;5036409;28;20045;-95
2023/06/01 06:09:49;;;;;;;8.43;2.35;;;11.40;99.90;;;;;;5023699;28;20063;-94
2023/06/01 06:12:44;;;;;;;6.43;2.03;;;11.30;99.90;;;;;;5049900;28;20052;-94
2023/06/01 06:15:22;;;;;;;8.25;2.40;;;11.40;99.90;;;;;;5024844;28;20099;-94
2023/06/01 06:18:24;;;;;;;;;;;;;;;;;;;;;
2023/06/01 06:21:10;;;;;;;7.15;2.08;;;11.50;99.90;;;;;;5045975;28;20723;-94
2023/06/01 06:24:32;;;;;;;8.05;2.40;;;11.60;99.90;;;;;;5045282;28;20045;-95
2023/06/01 06:27:12;;;;;;;5.10;2.40;;;11.50;99.90;;;;;;5027868;28;20060;-94
2023/06/01 06:29:58;;;;;;;8.55;2.70;;;11.50;99.90;;;;;;5032970;28;20117;-94
2023/06/01 06:32:44;;;;;;;8.95;2.70;;;11.50;99.90;;;;;;5029057;28;20192;-94
2023/06/01 06:36:05;;;;;;;9.73;2.63;;;11.60;99.90;;;;;;5020400;28;20132;-94
2023/06/01 06:38:51;;;;;;;6.68;2.47;;;11.60;99.90;;;;;;5013925;28;20165;-95
2023/06/01 06:41:25;;;;;;;5.85;2.42;;;11.40;99.90;;;;;;5010885;28;20049;-95
2023/06/01 06:44:42;;;;;;;5.88;1.83;;;11.70;99.90;;;;;;5015642;28;20540;-96
2023/06/01 06:47:53;;;;;;;5.35;1.83;;;11.60;99.90;;;;;;5013435;28;20065;-94
2023/06/01 06:50:37;;;;;;;7.82;1.92;;;11.70;99.90;;;;;;5008469;28;20052;-96
2023/06/01 06:56:54;;;;;;;4.97;1.75;;;11.90;99.90;;;;;;5003008;28;20529;-93
2023/06/01 06:59:30;;;;;;;4.00;2.20;;;11.90;99.90;;;;;;4986620;28;20531;-91
2023/06/01 07:01:59;;;;;;;8.02;1.83;;;11.90;99.90;;;;;;4994949;28;20053;-93
2023/06/01 07:04:29;;;;;;;8.75;2.33;;;11.70;99.90;;;;;;4977443;28;20061;-93
2023/06/01 07:07:00;;;;;;;5.78;1.75;;;11.90;99.90;;;;;;4977328;28;20048;-92
2023/06/01 07:09:26;;;;;;;5.97;2.03;;;11.90;99.90;;;;;;4975864;28;20076;-92
2023/06/01 07:11:52;;;;;;;6.80;1.88;;;11.90;99.90;;;;;;4977437;28;20512;-93
2023/06/01 07:14:21;;;;;;;4.28;1.80;;;11.90;99.90;;;;;;4978797;28;20053;-94
2023/06/01 07:16:47;;;;;;;4.75;2.10;;;12.00;99.90;;;;;;4975228;28;20120;-91
2023/06/01 07:19:21;;;;;;;6.30;2.08;;;11.90;99.90;;;;;;4976419;28;20137;-92
2023/06/01 07:21:57;;;;;;;8.07;2.60;;;11.90;99.90;;;;;;4977313;28;20097;-90
2023/06/01 07:24:22;;;;;;;8.60;2.63;;;11.90;99.90;;;;;;4975487;28;20061;-91
2023/06/01 07:26:51;;;;;;;7.65;2.63;;;11.90;99.90;;;;;;4993574;28;20100;-90
2023/06/01 07:29:17;;;;;;;7.15;2.45;;;11.90;99.90;;;;;;4976407;28;20434;-88
2023/06/01 07:31:43;;;;;;;11.55;2.78;;;11.90;99.90;;;;;;4974825;28;20045;-87
2023/06/01 07:34:09;;;;;;;4.50;2.35;;;12.00;99.90;;;;;;4976519;28;20049;-89
2023/06/01 07:36:41;;;;;;;11.65;2.80;;;12.00;99.90;;;;;;4975794;28;20052;-88
2023/06/01 07:39:14;;;;;;;5.07;2.30;;;11.90;99.90;;;;;;4975168;28;20121;-89
2023/06/01 07:41:40;;;;;;;9.68;3.00;;;12.00;99.90;;;;;;4976276;28;20560;-89
2023/06/01 07:44:13;;;;;;;8.35;2.95;;;12.00;99.90;;;;;;4975752;28;20581;-89
2023/06/01 07:46:39;;;;;;;10.13;2.95;;;12.00;99.90;;;;;;4975040;28;20060;-89
2023/06/01 07:49:05;;;;;;;8.00;2.80;;;12.00;99.90;;;;;;4976799;28;20129;-90
2023/06/01 07:51:46;;;;;;;10.15;3.25;;;11.90;99.90;;;;;;4976014;28;20148;-90
2023/06/01 07:54:15;;;;;;;6.40;2.75;;;12.00;99.90;;;;;;4970692;28;20490;-89
2023/06/01 07:56:52;;;;;;;9.13;2.70;;;12.00;99.90;;;;;;4976195;28;20062;-91
2023/06/01 07:59:29;;;;;;;11.05;2.55;;;12.10;99.90;;;;;;4977825;28;20085;-91
2023/06/01 08:01:56;;;;;;;8.25;2.45;;;12.20;99.90;;;;;;4983826;28;20046;-90
2023/06/01 08:04:22;;;;;;;7.80;2.17;;;12.20;99.90;;;;;;4973108;28;20080;-90
2023/06/01 08:06:51;;;;;;;5.32;1.75;;;12.30;99.90;;;;;;4976779;28;20109;-90
2023/06/01 08:09:30;;;;;;;7.28;1.30;;;12.30;99.90;;;;;;4975659;28;20054;-91
2023/06/01 08:11:59;;;;;;;8.32;1.90;;;12.40;99.90;;;;;;4977122;28;20041;-90
2023/06/01 08:14:25;;;;;;;6.55;1.70;;;12.40;99.90;;;;;;4984287;28;20373;-91
2023/06/01 08:17:11;;;;;;;5.68;1.77;;;12.40;99.90;;;;;;4991887;28;20037;-91
2023/06/01 08:19:37;;;;;;;6.35;2.13;;;12.50;99.90;;;;;;4973683;28;20050;-90
2023/06/01 08:22:05;;;;;;;9.20;2.42;;;12.50;99.90;;;;;;4976438;28;20040;-91
2023/06/01 08:24:40;;;;;;;9.35;2.40;;;12.50;99.90;;;;;;4975964;28;20119;-92
2023/06/01 08:27:37;;;;;;;9.80;2.85;;;12.50;99.90;;;;;;4976711;28;20162;-92
2023/06/01 08:30:36;;;;;;;10.73;2.63;;;12.40;99.90;;;;;;4994507;28;20053;-91
2023/06/01 08:33:03;;;;;;;8.13;2.72;;;12.50;99.90;;;;;;4958207;28;20057;-92
2023/06/01 08:35:33;;;;;;;10.35;2.90;;;12.50;99.90;;;;;;4969705;28;20053;-91
2023/06/01 08:38:01;;;;;;;11.93;2.95;;;12.50;99.90;;;;;;4977526;28;20054;-91
2023/06/01 08:40:43;;;;;;;16.48;3.83;;;12.50;99.90;;;;;;4975824;28;20034;-91
2023/06/01 08:43:22;;;;;;;13.68;3.67;;;12.50;99.90;;;;;;4978487;28;20047;-91
2023/06/01 08:46:03;;;;;;;20.35;4.07;;;12.40;99.90;;;;;;4974461;28;20541;-91
2023/06/01 08:48:37;;;;;;;16.77;3.78;;;12.40;99.90;;;;;;4976314;28;20469;-91
2023/06/01 08:51:03;;;;;;;16.95;4.28;;;12.40;99.90;;;;;;4964419;28;20064;-92
2023/06/01 08:53:32;;;;;;;13.65;3.47;;;12.30;99.90;;;;;;4977048;28;20641;-91
2023/06/01 08:55:57;;;;;;;15.90;3.97;;;12.30;99.90;;;;;;4974313;28;20119;-91
2023/06/01 08:58:41;;;;;;;19.13;3.75;;;12.30;99.90;;;;;;4976610;28;20085;-92
2023/06/01 09:01:18;;;;;;;18.33;3.70;;;12.30;99.90;;;;;;4976999;28;20053;-91
2023/06/01 09:03:44;;;;;;;19.58;4.30;;;12.30;99.90;;;;;;4976036;28;20064;-91
2023/06/01 09:06:13;;;;;;;12.52;3.70;;;12.40;99.90;;;;;;4976258;28;20041;-92
2023/06/01 09:08:57;;;;;;;10.15;2.90;;;12.40;99.90;;;;;;4976378;28;20101;-91
2023/06/01 09:11:26;;;;;;;16.00;3.22;;;12.40;99.90;;;;;;4976035;28;20104;-91
2023/06/01 09:14:49;;;;;;;15.40;2.83;;;12.50;99.90;;;;;;4994841;28;20102;-92
2023/06/01 09:20:24;;;;;;;13.88;2.80;;;12.40;99.90;;;;;;5126700;23;20061;-92
2023/06/01 09:22:50;;;;;;;12.05;2.55;;;12.60;99.90;;;;;;5015720;28;20112;-91
2023/06/01 09:25:26;;;;;;;13.40;2.85;;;12.60;99.90;;;;;;4998491;28;20481;-91
2023/06/01 09:28:18;;;;;;;19.38;3.33;;;12.60;99.90;;;;;;4999381;28;20068;-91
2023/06/01 09:31:02;;;;;;;13.63;3.55;;;12.60;99.90;;;;;;4999370;28;20046;-92
2023/06/01 09:33:31;;;;;;;14.77;2.40;;;12.30;99.90;;;;;;4999891;28;20053;-92
2023/06/01 09:36:45;;;;;;;12.00;3.30;;;12.40;99.90;;;;;;4986183;28;20179;-92
2023/06/01 09:39:42;;;;;;;11.13;2.55;;;12.70;99.90;;;;;;4998434;28;20049;-92
2023/06/01 09:45:51;;;;;;;18.77;3.15;;;12.80;99.90;;;;;;5014147;28;20112;-92
2023/06/01 09:49:31;;;;;;;;;;;;;;;;;;;;;
2023/06/01 09:55:35;;;;;;;13.82;3.05;;;12.70;99.90;;;;;;4998593;28;20107;-91
2023/06/01 09:58:32;;;;;;;17.02;3.28;;;12.80;99.90;;;;;;4999043;28;20041;-91
2023/06/01 10:01:18;;;;;;;;;;;;;;;;;;;;;
2023/06/01 10:04:05;;;;;;;11.63;2.47;;;13.00;99.90;;;;;;5002859;28;20045;-91
2023/06/01 10:06:56;;;;;;;12.82;2.80;;;13.10;99.90;;;;;;4997886;28;20052;-91
2023/06/01 10:09:49;;;;;;;8.05;1.85;;;13.10;99.90;;;;;;4997849;28;20493;-90
2023/06/01 10:12:18;;;;;;;;;;;13.30;99.90;;;;;;4988124;28;20084;-91
2023/06/01 10:15:03;;;;;;;10.95;2.55;;;12.90;99.90;;;;;;4998563;28;19928;-91
2023/06/01 10:28:40;;;;;;;19.95;4.07;;;13.70;99.90;;;;;;4987952;23;20049;-92
2023/06/01 10:31:44;;;;;;;18.52;3.05;;;13.60;99.90;;;;;;4979290;28;20050;-92
2023/06/01 10:34:11;;;;;;;16.10;3.25;;;13.70;99.90;;;;;;4978752;28;20046;-91
2023/06/01 10:37:00;;;;;;;13.30;3.15;;;13.70;99.90;;;;;;4979561;28;20045;-91
2023/06/01 10:39:29;;;;;;;10.98;2.95;;;13.70;99.90;;;;;;4993329;28;20122;-91
2023/06/01 10:42:13;;;;;;;9.50;2.47;;;13.70;99.90;;;;;;4976510;28;20065;-91
2023/06/01 10:45:10;;;;;;;11.10;2.60;;;14.00;99.90;;;;;;4979985;28;20342;-92
2023/06/01 10:47:46;;;;;;;13.77;2.90;;;13.80;99.90;;;;;;5005330;28;20050;-93
2023/06/01 10:50:15;;;;;;;11.65;2.60;;;13.90;99.90;;;;;;4986569;28;20042;-93
2023/06/01 10:52:41;;;;;;;15.10;2.40;;;13.90;99.90;;;;;;4984957;28;20492;-93
2023/06/01 10:55:25;;;;;;;15.77;2.95;;;13.90;99.90;;;;;;4978917;28;20092;-92
2023/06/01 10:57:51;;;;;;;12.00;2.53;;;13.90;99.90;;;;;;4985953;28;20053;-91
2023/06/01 11:00:27;;;;;;;14.32;2.67;;;13.80;99.90;;;;;;4990805;28;20079;-91
2023/06/01 11:03:04;;;;;;;13.00;2.72;;;13.90;99.90;;;;;;4982576;28;20048;-93
2023/06/01 11:06:20;;;;;;;17.33;2.85;;;14.00;99.90;;;;;;4986980;28;20060;-92
2023/06/01 11:08:51;;;;;;;12.25;2.60;;;13.90;99.90;;;;;;4932422;28;20524;-92
2023/06/01 11:11:36;;;;;;;12.48;2.38;;;13.90;99.90;;;;;;4979712;28;20049;-93
2023/06/01 11:14:10;;;;;;;11.32;2.60;;;13.90;99.90;;;;;;4995241;28;20042;-92
2023/06/01 11:16:36;;;;;;;12.45;2.38;;;14.00;99.90;;;;;;4976901;28;20490;-87
2023/06/01 11:19:06;;;;;;;16.92;2.80;;;14.10;99.90;;;;;;4995229;28;20042;-90
2023/06/01 11:21:44;;;;;;;13.20;2.33;;;14.10;99.90;;;;;;4977675;28;20046;-90
2023/06/01 11:24:18;;;;;;;11.05;2.33;;;14.00;99.90;;;;;;4993049;28;20100;-91
2023/06/01 11:26:50;;;;;;;13.90;2.67;;;14.00;99.90;;;;;;4970233;28;20061;-92
2023/06/01 11:29:22;;;;;;;11.27;2.45;;;14.00;99.90;;;;;;4973196;28;20053;-88
2023/06/01 11:32:03;;;;;;;12.40;2.70;;;13.90;99.90;;;;;;4975635;28;20051;-93
2023/06/01 11:34:43;;;;;;;16.25;2.97;;;13.90;99.90;;;;;;5007365;28;20057;-88
2023/06/01 11:37:17;;;;;;;11.52;2.80;;;13.80;99.90;;;;;;4980399;28;20511;-88
2023/06/01 11:40:04;;;;;;;13.80;2.78;;;13.90;99.90;;;;;;4967774;28;20050;-88
2023/06/01 11:42:35;;;;;;;15.82;2.95;;;13.80;99.90;;;;;;4973515;28;20042;-87
2023/06/01 11:45:01;;;;;;;20.52;2.90;;;13.80;99.90;;;;;;4977410;28;20038;-87
2023/06/01 11:47:29;;;;;;;15.23;2.65;;;13.80;99.90;;;;;;4976120;28;20379;-87
2023/06/01 11:49:55;;;;;;;11.25;2.45;;;13.80;99.90;;;;;;4977687;28;20096;-90
2023/06/01 11:52:21;;;;;;;22.02;3.85;;;13.80;99.90;;;;;;4977755;28;20046;-88
2023/06/01 11:55:06;;;;;;;19.52;2.85;;;13.70;99.90;;;;;;4978448;28;20045;-90
2023/06/01 11:57:32;;;;;;;12.32;3.25;;;13.80;99.90;;;;;;5001179;28;20050;-90
2023/06/01 11:59:59;;;;;;;12.88;2.40;;;13.80;99.90;;;;;;4980651;28;20194;-87
2023/06/01 12:02:29;;;;;;;10.05;2.80;;;13.70;99.90;;;;;;4976471;28;20085;-88
2023/06/01 12:05:14;;;;;;;12.35;2.83;;;13.70;99.90;;;;;;4980142;28;20045;-91
2023/06/01 12:07:47;;;;;;;13.65;2.83;;;13.80;99.90;;;;;;4977582;28;20194;-90
2023/06/01 12:10:16;;;;;;;12.65;3.22;;;13.90;99.90;;;;;;4978113;28;20044;-89
2023/06/01 12:12:43;;;;;;;12.93;2.80;;;13.90;99.90;;;;;;4984442;28;20042;-90
2023/06/01 12:15:19;;;;;;;9.82;2.38;;;13.90;99.90;;;;;;4978813;28;20136;-90
2023/06/01 12:18:04;;;;;;;13.40;2.90;;;13.90;99.90;;;;;;4977719;28;20056;-90
2023/06/01 12:20:39;;;;;;;19.58;3.50;;;13.90;99.90;;;;;;4977476;28;20352;-90
2023/06/01 12:23:13;;;;;;;28.35;4.25;;;13.80;99.90;;;;;;4977844;28;20038;-89
2023/06/01 12:25:56;;;;;;;16.98;3.58;;;13.90;99.90;;;;;;4976945;28;20534;-90
2023/06/01 12:28:25;;;;;;;10.80;3.08;;;13.80;99.90;;;;;;4964594;28;20058;-87
2023/06/01 12:31:12;;;;;;;15.10;3.42;;;13.80;99.90;;;;;;4978020;28;20533;-91
2023/06/01 12:33:39;;;;;;;11.75;3.28;;;13.80;99.90;;;;;;4972352;28;20045;-88
2023/06/01 12:36:06;;;;;;;12.30;3.03;;;13.70;99.90;;;;;;4976117;28;20084;-87
2023/06/01 12:38:37;;;;;;;11.70;3.05;;;13.70;99.90;;;;;;4975860;28;20050;-86
2023/06/01 12:41:07;;;;;;;15.70;3.95;;;13.70;99.90;;;;;;4974128;28;20121;-85
2023/06/01 12:43:35;;;;;;;19.33;3.47;;;13.70;99.90;;;;;;4975262;28;20042;-86
2023/06/01 12:46:05;;;;;;;16.90;3.58;;;13.80;99.90;;;;;;4985904;28;20128;-86
2023/06/01 12:48:35;;;;;;;11.73;3.33;;;13.80;99.90;;;;;;4975358;28;20081;-87
2023/06/01 12:51:02;;;;;;;17.15;3.72;;;13.70;99.90;;;;;;4975019;28;20051;-86
2023/06/01 12:53:28;;;;;;;12.30;2.97;;;13.70;99.90;;;;;;4974296;28;20516;-87
2023/06/01 12:55:54;;;;;;;22.27;4.18;;;13.80;99.90;;;;;;4983782;28;20038;-87
2023/06/01 12:58:20;;;;;;;13.20;3.08;;;13.80;99.90;;;;;;4975402;28;20806;-88
2023/06/01 13:00:46;;;;;;;22.33;3.78;;;13.70;99.90;;;;;;4980642;28;20046;-86
2023/06/01 13:03:13;;;;;;;14.82;3.47;;;13.70;99.90;;;;;;4975986;28;20034;-87
2023/06/01 13:05:45;;;;;;;12.93;2.97;;;13.60;99.90;;;;;;4975224;28;20054;-88
2023/06/01 13:08:12;;;;;;;16.42;3.33;;;13.60;99.90;;;;;;4991070;28;20042;-88
2023/06/01 13:10:38;;;;;;;23.55;4.22;;;13.60;99.90;;;;;;4973779;28;20057;-88
2023/06/01 13:13:04;;;;;;;14.68;3.45;;;13.50;99.90;;;;;;4975626;28;20049;-87
2023/06/01 13:15:29;;;;;;;14.50;3.28;;;13.60;99.90;;;;;;4991079;28;20056;-87
2023/06/01 13:17:56;;;;;;;23.92;3.45;;;13.60;99.90;;;;;;4977513;28;20042;-87
2023/06/01 13:20:22;;;;;;;13.48;3.22;;;13.60;99.90;;;;;;4969004;28;20042;-87
2023/06/01 13:22:48;;;;;;;11.70;2.78;;;13.80;99.90;;;;;;4974760;28;20033;-87
2023/06/01 13:25:14;;;;;;;13.05;2.70;;;14.00;99.90;;;;;;4974668;28;20056;-87
2023/06/01 13:27:40;;;;;;;8.50;2.13;;;14.10;99.90;;;;;;4962651;28;20042;-88
2023/06/01 13:30:07;;;;;;;11.48;2.70;;;14.20;99.90;;;;;;4974355;28;20104;-86
2023/06/01 13:32:33;;;;;;;11.32;2.42;;;14.10;99.90;;;;;;4974304;28;20126;-87
2023/06/01 13:34:59;;;;;;;8.15;1.90;;;14.20;99.90;;;;;;4975078;28;20046;-88
2023/06/01 13:37:25;;;;;;;12.48;2.20;;;14.20;99.90;;;;;;4974291;28;20445;-89
2023/06/01 13:39:51;;;;;;;14.40;2.60;;;14.20;99.90;;;;;;4975564;28;20053;-89
2023/06/01 13:42:16;;;;;;;9.75;2.20;;;14.10;99.90;;;;;;4977182;28;20096;-87
2023/06/01 13:44:45;;;;;;;12.50;2.40;;;14.10;99.90;;;;;;4977508;28;20054;-88
2023/06/01 13:47:14;;;;;;;11.95;2.08;;;13.90;99.90;;;;;;4975211;28;20049;-87
2023/06/01 13:49:44;;;;;;;8.63;1.98;;;13.90;99.90;;;;;;4998333;28;20050;-87
2023/06/01 13:52:10;;;;;;;10.25;1.98;;;13.80;99.90;;;;;;4974981;28;20377;-87
2023/06/01 13:54:36;;;;;;;9.55;1.80;;;13.70;99.90;;;;;;4984842;28;20460;-88
2023/06/01 13:57:09;;;;;;;12.27;2.33;;;13.70;99.90;;;;;;4991422;28;20034;-88
2023/06/01 13:59:35;;;;;;;11.10;1.95;;;13.80;99.90;;;;;;4974720;28;20486;-88
2023/06/01 14:02:11;;;;;;;10.80;1.77;;;13.80;99.90;;;;;;4977286;28;20069;-86
2023/06/01 14:04:37;;;;;;;10.00;1.90;;;13.80;99.90;;;;;;4978322;28;20073;-88
2023/06/01 14:07:11;;;;;;;15.90;1.98;;;13.80;99.90;;;;;;4997417;28;20171;-87
2023/06/01 14:09:37;;;;;;;9.45;1.50;;;13.70;99.90;;;;;;4983976;28;20050;-86
2023/06/01 14:12:03;;;;;;;8.23;1.35;;;13.70;99.90;;;;;;4975760;28;20038;-87
2023/06/01 14:14:28;;;;;;;9.85;1.80;;;13.80;99.90;;;;;;4972438;28;20516;-87
2023/06/01 14:16:54;;;;;;;9.60;1.70;;;13.90;99.90;;;;;;4970949;28;20581;-88
2023/06/01 14:19:20;;;;;;;5.55;1.40;;;14.00;99.90;;;;;;4992308;28;20088;-88